sensor_id;sensor_type;location;lat;lon;timestamp;pressure;altitude;pressure_sealevel;temperature;humidity
23417;BME280;11881;42.432;25.632;2022-10-16T00:00:35;99923.19;;;12.55;95.51
23417;BME280;11881;42.432;25.632;2022-10-16T00:03:01;99931.06;;;12.47;95.58
23417;BME280;11881;42.432;25.632;2022-10-16T00:05:27;99920.38;;;12.57;95.01
23417;BME280;11881;42.432;25.632;2022-10-16T00:07:53;99920.81;;;12.62;94.60
23417;BME280;11881;42.432;25.632;2022-10-16T00:10:18;99926.88;;;12.64;93.76
23417;BME280;11881;42.432;25.632;2022-10-16T00:12:43;99927.41;;;12.58;93.77
23417;BME280;11881;42.432;25.632;2022-10-16T00:15:09;99928.50;;;12.45;93.94
23417;BME280;11881;42.432;25.632;2022-10-16T00:17:34;99928.25;;;12.48;94.77
23417;BME280;11881;42.432;25.632;2022-10-16T00:20:00;99928.75;;;12.73;93.53
23417;BME280;11881;42.432;25.632;2022-10-16T00:22:26;99932.75;;;12.48;94.04
23417;BME280;11881;42.432;25.632;2022-10-16T00:24:51;99930.09;;;12.58;93.68
23417;BME280;11881;42.432;25.632;2022-10-16T00:27:17;99925.81;;;12.36;94.84
23417;BME280;11881;42.432;25.632;2022-10-16T00:29:42;99925.38;;;12.40;94.91
23417;BME280;11881;42.432;25.632;2022-10-16T00:32:08;99924.63;;;12.19;96.54
23417;BME280;11881;42.432;25.632;2022-10-16T00:34:34;99923.94;;;12.27;95.74
23417;BME280;11881;42.432;25.632;2022-10-16T00:36:59;99926.00;;;12.23;96.83
23417;BME280;11881;42.432;25.632;2022-10-16T00:39:25;99925.75;;;12.26;96.61
23417;BME280;11881;42.432;25.632;2022-10-16T00:41:51;99930.25;;;12.25;96.59
23417;BME280;11881;42.432;25.632;2022-10-16T00:47:09;99928.03;;;12.31;96.95
23417;BME280;11881;42.432;25.632;2022-10-16T00:49:35;99930.44;;;12.34;96.14
23417;BME280;11881;42.432;25.632;2022-10-16T00:52:01;99938.03;;;12.38;95.44
23417;BME280;11881;42.432;25.632;2022-10-16T00:54:30;99941.94;;;12.24;96.71
23417;BME280;11881;42.432;25.632;2022-10-16T00:56:58;99937.44;;;12.25;96.61
23417;BME280;11881;42.432;25.632;2022-10-16T00:59:27;99947.16;;;12.05;97.78
23417;BME280;11881;42.432;25.632;2022-10-16T01:01:53;99937.72;;;12.01;97.71
23417;BME280;11881;42.432;25.632;2022-10-16T01:04:19;99943.84;;;11.92;98.29
23417;BME280;11881;42.432;25.632;2022-10-16T01:06:54;99947.56;;;12.01;98.29
23417;BME280;11881;42.432;25.632;2022-10-16T01:09:37;99953.47;;;12.04;97.57
23417;BME280;11881;42.432;25.632;2022-10-16T01:12:36;99950.06;;;12.23;96.19
23417;BME280;11881;42.432;25.632;2022-10-16T01:15:16;99954.63;;;12.11;96.59
23417;BME280;11881;42.432;25.632;2022-10-16T01:20:37;99952.25;;;12.08;97.37
23417;BME280;11881;42.432;25.632;2022-10-16T01:32:03;99964.09;;;12.15;96.08
23417;BME280;11881;42.432;25.632;2022-10-16T01:34:55;99958.94;;;12.23;95.44
23417;BME280;11881;42.432;25.632;2022-10-16T01:40:27;99953.28;;;12.47;94.26
23417;BME280;11881;42.432;25.632;2022-10-16T01:43:01;99954.03;;;12.29;94.67
23417;BME280;11881;42.432;25.632;2022-10-16T01:45:30;99955.16;;;12.26;95.13
23417;BME280;11881;42.432;25.632;2022-10-16T01:47:58;99964.16;;;12.25;95.21
23417;BME280;11881;42.432;25.632;2022-10-16T01:50:26;99955.28;;;12.24;95.62
23417;BME280;11881;42.432;25.632;2022-10-16T01:52:53;99961.19;;;12.28;95.95
23417;BME280;11881;42.432;25.632;2022-10-16T01:55:29;99966.75;;;12.15;96.15
23417;BME280;11881;42.432;25.632;2022-10-16T01:57:56;99964.19;;;12.35;95.35
23417;BME280;11881;42.432;25.632;2022-10-16T02:00:25;99967.38;;;12.29;95.45
23417;BME280;11881;42.432;25.632;2022-10-16T02:02:53;99964.59;;;12.30;95.53
23417;BME280;11881;42.432;25.632;2022-10-16T02:05:29;99966.00;;;12.34;95.01
23417;BME280;11881;42.432;25.632;2022-10-16T02:07:56;99967.44;;;12.38;94.66
23417;BME280;11881;42.432;25.632;2022-10-16T02:10:23;99971.72;;;12.20;95.93
23417;BME280;11881;42.432;25.632;2022-10-16T02:12:55;99964.97;;;11.95;98.19
23417;BME280;11881;42.432;25.632;2022-10-16T02:15:22;99968.34;;;11.97;98.44
23417;BME280;11881;42.432;25.632;2022-10-16T02:17:48;99970.16;;;11.96;98.32
23417;BME280;11881;42.432;25.632;2022-10-16T02:20:13;99972.56;;;11.99;97.81
23417;BME280;11881;42.432;25.632;2022-10-16T02:22:48;99977.19;;;11.97;97.55
23417;BME280;11881;42.432;25.632;2022-10-16T02:25:22;99973.81;;;11.95;98.13
23417;BME280;11881;42.432;25.632;2022-10-16T02:28:01;99973.50;;;11.89;98.74
23417;BME280;11881;42.432;25.632;2022-10-16T02:30:41;99970.63;;;12.02;98.01
23417;BME280;11881;42.432;25.632;2022-10-16T02:33:10;99979.16;;;11.95;98.50
23417;BME280;11881;42.432;25.632;2022-10-16T02:35:39;99977.03;;;11.78;99.74
23417;BME280;11881;42.432;25.632;2022-10-16T02:38:06;99985.94;;;11.67;100.00
23417;BME280;11881;42.432;25.632;2022-10-16T02:40:33;99982.31;;;11.68;100.00
23417;BME280;11881;42.432;25.632;2022-10-16T02:42:58;99977.75;;;11.80;99.89
23417;BME280;11881;42.432;25.632;2022-10-16T02:45:24;99978.13;;;12.08;98.09
23417;BME280;11881;42.432;25.632;2022-10-16T02:47:50;99972.63;;;11.88;98.34
23417;BME280;11881;42.432;25.632;2022-10-16T02:50:16;99977.47;;;11.94;98.65
23417;BME280;11881;42.432;25.632;2022-10-16T02:52:42;99979.97;;;12.17;97.20
23417;BME280;11881;42.432;25.632;2022-10-16T02:55:08;99974.31;;;12.10;97.07
23417;BME280;11881;42.432;25.632;2022-10-16T02:57:33;99980.66;;;12.09;97.01
23417;BME280;11881;42.432;25.632;2022-10-16T03:00:00;99978.34;;;12.05;97.54
23417;BME280;11881;42.432;25.632;2022-10-16T03:02:25;99979.09;;;11.75;98.59
23417;BME280;11881;42.432;25.632;2022-10-16T03:04:51;99982.00;;;11.83;97.79
23417;BME280;11881;42.432;25.632;2022-10-16T03:07:16;99979.34;;;11.83;98.23
23417;BME280;11881;42.432;25.632;2022-10-16T03:09:41;99980.09;;;11.73;98.62
23417;BME280;11881;42.432;25.632;2022-10-16T03:12:07;99987.72;;;11.78;98.12
23417;BME280;11881;42.432;25.632;2022-10-16T03:14:33;99995.59;;;11.80;97.99
23417;BME280;11881;42.432;25.632;2022-10-16T03:16:58;99988.53;;;11.90;97.13
23417;BME280;11881;42.432;25.632;2022-10-16T03:19:24;99995.56;;;11.91;98.15
23417;BME280;11881;42.432;25.632;2022-10-16T03:21:49;99992.91;;;11.91;97.64
23417;BME280;11881;42.432;25.632;2022-10-16T03:24:15;99995.81;;;11.88;98.35
23417;BME280;11881;42.432;25.632;2022-10-16T03:26:41;99996.88;;;11.96;96.96
23417;BME280;11881;42.432;25.632;2022-10-16T03:29:06;99994.06;;;11.98;97.35
23417;BME280;11881;42.432;25.632;2022-10-16T03:31:32;99990.38;;;11.89;96.37
23417;BME280;11881;42.432;25.632;2022-10-16T03:33:57;99990.94;;;11.93;96.31
23417;BME280;11881;42.432;25.632;2022-10-16T03:36:23;99996.34;;;12.03;95.14
23417;BME280;11881;42.432;25.632;2022-10-16T03:38:48;99996.81;;;12.08;94.68
23417;BME280;11881;42.432;25.632;2022-10-16T03:41:14;100001.03;;;11.89;95.73
23417;BME280;11881;42.432;25.632;2022-10-16T03:43:39;99998.38;;;11.89;95.99
23417;BME280;11881;42.432;25.632;2022-10-16T03:46:05;100008.25;;;11.98;95.11
23417;BME280;11881;42.432;25.632;2022-10-16T03:48:31;100000.78;;;11.92;95.72
23417;BME280;11881;42.432;25.632;2022-10-16T03:50:57;100009.00;;;12.01;95.27
23417;BME280;11881;42.432;25.632;2022-10-16T03:53:23;100012.50;;;12.01;95.22
23417;BME280;11881;42.432;25.632;2022-10-16T03:55:48;100008.00;;;12.02;94.44
23417;BME280;11881;42.432;25.632;2022-10-16T03:58:14;100019.31;;;11.94;94.88
23417;BME280;11881;42.432;25.632;2022-10-16T04:00:43;100013.34;;;12.02;95.61
23417;BME280;11881;42.432;25.632;2022-10-16T04:03:10;100016.81;;;12.13;94.65
23417;BME280;11881;42.432;25.632;2022-10-16T04:05:36;100013.81;;;12.07;94.45
23417;BME280;11881;42.432;25.632;2022-10-16T04:08:02;100018.41;;;12.05;94.21
23417;BME280;11881;42.432;25.632;2022-10-16T04:10:28;100018.94;;;11.98;94.77
23417;BME280;11881;42.432;25.632;2022-10-16T04:12:53;100012.44;;;11.91;95.49
23417;BME280;11881;42.432;25.632;2022-10-16T04:15:24;100011.78;;;11.99;94.38
23417;BME280;11881;42.432;25.632;2022-10-16T04:17:49;100011.97;;;11.86;94.75
23417;BME280;11881;42.432;25.632;2022-10-16T04:20:15;100007.56;;;11.96;94.38
23417;BME280;11881;42.432;25.632;2022-10-16T04:22:41;100011.66;;;12.01;94.47
23417;BME280;11881;42.432;25.632;2022-10-16T04:25:06;100007.66;;;12.16;93.27
23417;BME280;11881;42.432;25.632;2022-10-16T04:27:32;100017.06;;;12.10;93.74
23417;BME280;11881;42.432;25.632;2022-10-16T04:30:00;100013.94;;;12.05;93.74
23417;BME280;11881;42.432;25.632;2022-10-16T04:32:26;100021.31;;;12.13;93.35
23417;BME280;11881;42.432;25.632;2022-10-16T04:34:52;100024.69;;;12.15;93.44
23417;BME280;11881;42.432;25.632;2022-10-16T04:37:17;100028.59;;;12.11;93.18
23417;BME280;11881;42.432;25.632;2022-10-16T04:39:43;100025.44;;;12.06;94.38
23417;BME280;11881;42.432;25.632;2022-10-16T04:42:10;100034.53;;;12.14;93.23
23417;BME280;11881;42.432;25.632;2022-10-16T04:44:35;100034.44;;;12.05;93.86
23417;BME280;11881;42.432;25.632;2022-10-16T04:47:01;100031.16;;;12.12;93.59
23417;BME280;11881;42.432;25.632;2022-10-16T04:49:26;100038.81;;;12.06;94.01
23417;BME280;11881;42.432;25.632;2022-10-16T04:51:51;100034.97;;;12.19;92.95
23417;BME280;11881;42.432;25.632;2022-10-16T04:54:17;100051.59;;;12.23;92.82
23417;BME280;11881;42.432;25.632;2022-10-16T04:56:42;100049.38;;;12.28;93.10
23417;BME280;11881;42.432;25.632;2022-10-16T04:59:13;100053.41;;;12.22;93.17
23417;BME280;11881;42.432;25.632;2022-10-16T05:01:39;100051.34;;;12.26;92.16
23417;BME280;11881;42.432;25.632;2022-10-16T05:04:04;100058.88;;;12.21;92.20
23417;BME280;11881;42.432;25.632;2022-10-16T05:06:30;100061.97;;;12.37;91.68
23417;BME280;11881;42.432;25.632;2022-10-16T05:08:55;100061.97;;;12.37;91.42
23417;BME280;11881;42.432;25.632;2022-10-16T05:11:20;100063.25;;;12.43;91.54
23417;BME280;11881;42.432;25.632;2022-10-16T05:13:46;100057.69;;;12.56;90.66
23417;BME280;11881;42.432;25.632;2022-10-16T05:16:12;100064.03;;;12.55;90.47
23417;BME280;11881;42.432;25.632;2022-10-16T05:18:37;100067.94;;;12.50;91.35
23417;BME280;11881;42.432;25.632;2022-10-16T05:21:03;100065.72;;;12.56;91.03
23417;BME280;11881;42.432;25.632;2022-10-16T05:23:28;100063.75;;;12.58;90.68
23417;BME280;11881;42.432;25.632;2022-10-16T05:25:57;100072.13;;;12.74;89.79
23417;BME280;11881;42.432;25.632;2022-10-16T05:28:28;100071.28;;;12.73;90.15
23417;BME280;11881;42.432;25.632;2022-10-16T05:30:54;100070.56;;;13.02;89.61
23417;BME280;11881;42.432;25.632;2022-10-16T05:33:20;100080.59;;;13.10;88.84
23417;BME280;11881;42.432;25.632;2022-10-16T05:35:46;100077.91;;;13.40;86.82
23417;BME280;11881;42.432;25.632;2022-10-16T05:38:11;100083.53;;;13.37;86.57
23417;BME280;11881;42.432;25.632;2022-10-16T05:40:37;100096.66;;;13.50;86.49
23417;BME280;11881;42.432;25.632;2022-10-16T05:43:02;100092.72;;;13.14;88.17
23417;BME280;11881;42.432;25.632;2022-10-16T05:45:27;100084.09;;;13.00;87.34
23417;BME280;11881;42.432;25.632;2022-10-16T05:47:53;100093.75;;;12.92;87.74
23417;BME280;11881;42.432;25.632;2022-10-16T05:50:18;100097.56;;;12.89;87.51
23417;BME280;11881;42.432;25.632;2022-10-16T05:52:44;100099.09;;;12.92;87.29
23417;BME280;11881;42.432;25.632;2022-10-16T05:55:09;100101.31;;;12.77;88.76
23417;BME280;11881;42.432;25.632;2022-10-16T05:57:34;100106.13;;;12.93;88.36
23417;BME280;11881;42.432;25.632;2022-10-16T06:00:00;100111.41;;;13.04;88.73
23417;BME280;11881;42.432;25.632;2022-10-16T06:02:25;100110.22;;;13.18;87.32
23417;BME280;11881;42.432;25.632;2022-10-16T06:04:51;100116.81;;;13.14;88.69
23417;BME280;11881;42.432;25.632;2022-10-16T06:07:19;100109.00;;;13.31;88.56
23417;BME280;11881;42.432;25.632;2022-10-16T06:09:48;100111.88;;;13.49;88.33
23417;BME280;11881;42.432;25.632;2022-10-16T06:12:13;100116.00;;;13.73;86.37
23417;BME280;11881;42.432;25.632;2022-10-16T06:14:39;100122.53;;;13.80;85.61
23417;BME280;11881;42.432;25.632;2022-10-16T06:17:04;100119.16;;;13.88;86.11
23417;BME280;11881;42.432;25.632;2022-10-16T06:19:29;100129.28;;;13.84;85.79
23417;BME280;11881;42.432;25.632;2022-10-16T06:21:56;100123.50;;;14.08;84.55
23417;BME280;11881;42.432;25.632;2022-10-16T06:24:23;100125.78;;;14.13;84.25
23417;BME280;11881;42.432;25.632;2022-10-16T06:26:48;100125.50;;;14.25;83.62
23417;BME280;11881;42.432;25.632;2022-10-16T06:29:14;100122.97;;;14.33;83.57
23417;BME280;11881;42.432;25.632;2022-10-16T06:31:39;100130.72;;;14.46;83.59
23417;BME280;11881;42.432;25.632;2022-10-16T06:34:04;100132.97;;;14.60;82.94
23417;BME280;11881;42.432;25.632;2022-10-16T06:36:34;100137.91;;;14.65;84.87
23417;BME280;11881;42.432;25.632;2022-10-16T06:39:00;100140.69;;;14.83;85.90
23417;BME280;11881;42.432;25.632;2022-10-16T06:41:25;100138.75;;;15.12;82.58
23417;BME280;11881;42.432;25.632;2022-10-16T06:43:51;100136.28;;;15.29;80.88
23417;BME280;11881;42.432;25.632;2022-10-16T06:46:20;100137.69;;;15.33;79.57
23417;BME280;11881;42.432;25.632;2022-10-16T06:48:46;100145.44;;;15.36;80.84
23417;BME280;11881;42.432;25.632;2022-10-16T06:51:17;100144.91;;;15.32;80.29
23417;BME280;11881;42.432;25.632;2022-10-16T06:53:48;100146.59;;;15.61;80.17
23417;BME280;11881;42.432;25.632;2022-10-16T06:56:18;100147.16;;;15.64;80.33
23417;BME280;11881;42.432;25.632;2022-10-16T06:58:44;100151.41;;;15.57;78.48
23417;BME280;11881;42.432;25.632;2022-10-16T07:01:11;100151.41;;;15.67;78.19
23417;BME280;11881;42.432;25.632;2022-10-16T07:03:38;100158.78;;;15.83;77.33
23417;BME280;11881;42.432;25.632;2022-10-16T07:06:06;100157.25;;;15.80;76.77
23417;BME280;11881;42.432;25.632;2022-10-16T07:08:33;100161.41;;;15.92;75.82
23417;BME280;11881;42.432;25.632;2022-10-16T07:11:03;100160.75;;;16.08;74.43
23417;BME280;11881;42.432;25.632;2022-10-16T07:13:32;100162.66;;;15.98;73.85
23417;BME280;11881;42.432;25.632;2022-10-16T07:15:57;100167.13;;;15.89;73.35
23417;BME280;11881;42.432;25.632;2022-10-16T07:18:23;100165.09;;;15.91;72.95
23417;BME280;11881;42.432;25.632;2022-10-16T07:20:52;100162.75;;;16.06;73.21
23417;BME280;11881;42.432;25.632;2022-10-16T07:23:17;100163.66;;;15.97;74.14
23417;BME280;11881;42.432;25.632;2022-10-16T07:25:43;100160.53;;;16.02;72.65
23417;BME280;11881;42.432;25.632;2022-10-16T07:28:08;100163.38;;;16.36;71.18
23417;BME280;11881;42.432;25.632;2022-10-16T07:30:35;100157.75;;;16.47;70.12
23417;BME280;11881;42.432;25.632;2022-10-16T07:33:01;100154.38;;;16.45;69.30
23417;BME280;11881;42.432;25.632;2022-10-16T07:35:27;100156.75;;;16.48;67.99
23417;BME280;11881;42.432;25.632;2022-10-16T07:37:52;100146.72;;;16.58;68.35
23417;BME280;11881;42.432;25.632;2022-10-16T07:40:17;100147.88;;;16.73;67.33
23417;BME280;11881;42.432;25.632;2022-10-16T07:42:43;100147.97;;;16.82;66.81
23417;BME280;11881;42.432;25.632;2022-10-16T07:45:08;100159.72;;;16.81;65.76
23417;BME280;11881;42.432;25.632;2022-10-16T07:47:34;100153.97;;;17.01;65.15
23417;BME280;11881;42.432;25.632;2022-10-16T07:49:59;100150.66;;;17.08;63.71
23417;BME280;11881;42.432;25.632;2022-10-16T07:52:25;100149.94;;;17.32;62.79
23417;BME280;11881;42.432;25.632;2022-10-16T07:54:50;100152.69;;;17.40;62.57
23417;BME280;11881;42.432;25.632;2022-10-16T07:57:15;100143.44;;;17.50;61.44
23417;BME280;11881;42.432;25.632;2022-10-16T07:59:45;100148.88;;;17.67;60.91
23417;BME280;11881;42.432;25.632;2022-10-16T08:02:11;100147.03;;;17.67;61.56
23417;BME280;11881;42.432;25.632;2022-10-16T08:04:36;100157.94;;;17.92;59.60
23417;BME280;11881;42.432;25.632;2022-10-16T08:07:02;100160.50;;;18.10;58.41
23417;BME280;11881;42.432;25.632;2022-10-16T08:09:27;100154.63;;;18.30;55.36
23417;BME280;11881;42.432;25.632;2022-10-16T08:11:53;100154.25;;;18.01;53.37
23417;BME280;11881;42.432;25.632;2022-10-16T08:14:18;100150.91;;;18.31;52.78
23417;BME280;11881;42.432;25.632;2022-10-16T08:16:43;100152.28;;;18.52;50.25
23417;BME280;11881;42.432;25.632;2022-10-16T08:19:09;100155.13;;;18.58;49.72
23417;BME280;11881;42.432;25.632;2022-10-16T08:21:34;100149.75;;;18.58;51.85
23417;BME280;11881;42.432;25.632;2022-10-16T08:24:00;100153.97;;;18.53;52.10
23417;BME280;11881;42.432;25.632;2022-10-16T08:26:26;100139.13;;;18.57;52.25
23417;BME280;11881;42.432;25.632;2022-10-16T08:28:51;100143.16;;;18.61;52.13
23417;BME280;11881;42.432;25.632;2022-10-16T08:31:17;100147.72;;;18.60;52.80
23417;BME280;11881;42.432;25.632;2022-10-16T08:33:44;100150.59;;;18.34;53.56
23417;BME280;11881;42.432;25.632;2022-10-16T08:36:11;100144.84;;;18.54;52.82
23417;BME280;11881;42.432;25.632;2022-10-16T08:38:37;100146.38;;;18.56;51.94
23417;BME280;11881;42.432;25.632;2022-10-16T08:43:48;100147.25;;;18.73;52.09
23417;BME280;11881;42.432;25.632;2022-10-16T08:48:57;100137.41;;;18.88;50.55
23417;BME280;11881;42.432;25.632;2022-10-16T08:51:26;100142.81;;;18.88;48.04
23417;BME280;11881;42.432;25.632;2022-10-16T08:53:59;100147.88;;;19.08;48.80
23417;BME280;11881;42.432;25.632;2022-10-16T08:56:26;100151.09;;;18.87;49.52
23417;BME280;11881;42.432;25.632;2022-10-16T08:58:53;100137.41;;;18.88;50.45
23417;BME280;11881;42.432;25.632;2022-10-16T09:01:20;100149.19;;;19.12;49.62
23417;BME280;11881;42.432;25.632;2022-10-16T09:03:58;100141.69;;;19.30;48.34
23417;BME280;11881;42.432;25.632;2022-10-16T09:07:01;100142.44;;;19.16;49.82
23417;BME280;11881;42.432;25.632;2022-10-16T09:14:58;100142.28;;;19.57;48.00
23417;BME280;11881;42.432;25.632;2022-10-16T09:17:39;100145.59;;;19.75;46.59
23417;BME280;11881;42.432;25.632;2022-10-16T09:22:43;100144.47;;;20.01;45.83
23417;BME280;11881;42.432;25.632;2022-10-16T09:25:17;100141.19;;;20.05;46.39
23417;BME280;11881;42.432;25.632;2022-10-16T09:27:46;100139.09;;;20.15;45.45
23417;BME280;11881;42.432;25.632;2022-10-16T09:30:17;100141.19;;;20.28;45.88
23417;BME280;11881;42.432;25.632;2022-10-16T09:32:44;100137.31;;;20.31;44.52
23417;BME280;11881;42.432;25.632;2022-10-16T09:35:15;100136.78;;;20.35;44.44
23417;BME280;11881;42.432;25.632;2022-10-16T09:37:43;100146.16;;;20.25;43.46
23417;BME280;11881;42.432;25.632;2022-10-16T09:40:44;100139.59;;;20.42;43.74
23417;BME280;11881;42.432;25.632;2022-10-16T09:46:00;100125.69;;;20.22;44.45
23417;BME280;11881;42.432;25.632;2022-10-16T09:48:49;100123.06;;;20.37;45.15
23417;BME280;11881;42.432;25.632;2022-10-16T09:51:22;100121.38;;;20.36;44.16
23417;BME280;11881;42.432;25.632;2022-10-16T09:53:48;100117.53;;;20.30;46.06
23417;BME280;11881;42.432;25.632;2022-10-16T09:56:23;100113.00;;;20.45;47.27
23417;BME280;11881;42.432;25.632;2022-10-16T09:58:51;100113.50;;;20.64;46.71
23417;BME280;11881;42.432;25.632;2022-10-16T10:01:18;100103.56;;;20.41;47.41
23417;BME280;11881;42.432;25.632;2022-10-16T10:03:44;100105.03;;;20.06;48.93
23417;BME280;11881;42.432;25.632;2022-10-16T10:06:22;100099.03;;;20.34;48.70
23417;BME280;11881;42.432;25.632;2022-10-16T10:11:52;100097.47;;;20.62;47.78
23417;BME280;11881;42.432;25.632;2022-10-16T10:14:22;100095.91;;;20.45;42.92
23417;BME280;11881;42.432;25.632;2022-10-16T10:16:48;100090.91;;;19.88;43.24
23417;BME280;11881;42.432;25.632;2022-10-16T10:19:17;100086.19;;;19.90;43.01
23417;BME280;11881;42.432;25.632;2022-10-16T10:21:42;100098.94;;;20.27;43.08
23417;BME280;11881;42.432;25.632;2022-10-16T10:24:14;100095.13;;;20.59;43.64
23417;BME280;11881;42.432;25.632;2022-10-16T10:29:46;100088.25;;;21.01;42.46
23417;BME280;11881;42.432;25.632;2022-10-16T10:32:32;100090.13;;;20.86;44.34
23417;BME280;11881;42.432;25.632;2022-10-16T10:41:00;100083.19;;;20.68;40.00
23417;BME280;11881;42.432;25.632;2022-10-16T10:43:43;100078.94;;;20.89;39.03
23417;BME280;11881;42.432;25.632;2022-10-16T10:46:34;100077.31;;;20.65;39.56
23417;BME280;11881;42.432;25.632;2022-10-16T10:49:07;100077.69;;;20.16;41.50
23417;BME280;11881;42.432;25.632;2022-10-16T10:57:00;100071.25;;;20.40;43.58
23417;BME280;11881;42.432;25.632;2022-10-16T11:07:27;100054.13;;;20.48;45.56
23417;BME280;11881;42.432;25.632;2022-10-16T11:09:58;100059.22;;;20.42;49.46
23417;BME280;11881;42.432;25.632;2022-10-16T11:12:33;100048.09;;;20.37;51.56
23417;BME280;11881;42.432;25.632;2022-10-16T11:15:03;100058.88;;;20.45;46.35
23417;BME280;11881;42.432;25.632;2022-10-16T11:17:42;100056.31;;;20.44;46.51
23417;BME280;11881;42.432;25.632;2022-10-16T11:20:23;100057.31;;;20.28;45.68
23417;BME280;11881;42.432;25.632;2022-10-16T11:25:39;100054.97;;;20.25;46.62
23417;BME280;11881;42.432;25.632;2022-10-16T11:28:11;100055.31;;;20.07;45.37
23417;BME280;11881;42.432;25.632;2022-10-16T11:30:48;100060.16;;;19.58;45.94
23417;BME280;11881;42.432;25.632;2022-10-16T11:41:18;100068.91;;;19.68;46.35
23417;BME280;11881;42.432;25.632;2022-10-16T11:46:23;100061.06;;;19.50;46.60
23417;BME280;11881;42.432;25.632;2022-10-16T11:49:14;100054.72;;;19.35;46.95
23417;BME280;11881;42.432;25.632;2022-10-16T11:51:45;100050.25;;;19.50;45.70
23417;BME280;11881;42.432;25.632;2022-10-16T11:56:40;100063.50;;;19.68;46.85
23417;BME280;11881;42.432;25.632;2022-10-16T11:59:40;100061.53;;;19.62;45.59
23417;BME280;11881;42.432;25.632;2022-10-16T12:02:30;100056.50;;;19.51;46.36
23417;BME280;11881;42.432;25.632;2022-10-16T12:07:48;100063.50;;;19.37;45.29
23417;BME280;11881;42.432;25.632;2022-10-16T12:10:24;100058.63;;;19.32;43.58
23417;BME280;11881;42.432;25.632;2022-10-16T12:12:50;100058.63;;;19.32;44.90
23417;BME280;11881;42.432;25.632;2022-10-16T12:17:50;100054.69;;;19.43;45.06
23417;BME280;11881;42.432;25.632;2022-10-16T12:22:54;100058.53;;;19.49;45.17
23417;BME280;11881;42.432;25.632;2022-10-16T12:25:31;100057.66;;;19.56;44.39
23417;BME280;11881;42.432;25.632;2022-10-16T12:28:19;100062.84;;;19.58;46.20
23417;BME280;11881;42.432;25.632;2022-10-16T12:30:54;100061.19;;;19.57;46.56
23417;BME280;11881;42.432;25.632;2022-10-16T12:35:48;100057.97;;;19.53;48.27
23417;BME280;11881;42.432;25.632;2022-10-16T12:38:21;100057.53;;;19.41;49.08
23417;BME280;11881;42.432;25.632;2022-10-16T12:41:04;100070.09;;;19.34;49.29
23417;BME280;11881;42.432;25.632;2022-10-16T12:43:44;100066.28;;;19.21;48.00
23417;BME280;11881;42.432;25.632;2022-10-16T12:48:41;100073.34;;;19.22;48.09
23417;BME280;11881;42.432;25.632;2022-10-16T12:53:58;100074.69;;;19.26;42.55
23417;BME280;11881;42.432;25.632;2022-10-16T12:59:20;100077.75;;;19.62;41.14
23417;BME280;11881;42.432;25.632;2022-10-16T13:07:54;100083.28;;;19.69;41.10
23417;BME280;11881;42.432;25.632;2022-10-16T13:10:27;100084.50;;;19.58;41.25
23417;BME280;11881;42.432;25.632;2022-10-16T13:13:21;100088.50;;;19.70;43.83
23417;BME280;11881;42.432;25.632;2022-10-16T13:29:53;100090.69;;;19.35;44.72
23417;BME280;11881;42.432;25.632;2022-10-16T13:32:21;100087.38;;;19.25;45.70
23417;BME280;11881;42.432;25.632;2022-10-16T13:34:48;100082.50;;;19.12;47.40
23417;BME280;11881;42.432;25.632;2022-10-16T13:37:31;100087.28;;;19.02;47.60
23417;BME280;11881;42.432;25.632;2022-10-16T13:40:29;100075.97;;;18.99;47.91
23417;BME280;11881;42.432;25.632;2022-10-16T13:42:55;100077.19;;;18.88;47.58
23417;BME280;11881;42.432;25.632;2022-10-16T13:45:23;100080.06;;;18.86;48.21
23417;BME280;11881;42.432;25.632;2022-10-16T13:47:49;100083.94;;;18.84;48.89
23417;BME280;11881;42.432;25.632;2022-10-16T13:50:17;100088.84;;;18.80;49.07
23417;BME280;11881;42.432;25.632;2022-10-16T13:52:43;100093.88;;;18.83;49.03
23417;BME280;11881;42.432;25.632;2022-10-16T13:55:12;100097.94;;;18.87;48.43
23417;BME280;11881;42.432;25.632;2022-10-16T13:57:38;100101.66;;;18.86;47.57
23417;BME280;11881;42.432;25.632;2022-10-16T14:00:25;100096.06;;;18.88;47.77
23417;BME280;11881;42.432;25.632;2022-10-16T14:03:01;100097.44;;;18.84;49.20
23417;BME280;11881;42.432;25.632;2022-10-16T14:05:28;100102.00;;;18.75;49.11
23417;BME280;11881;42.432;25.632;2022-10-16T14:07:54;100099.66;;;18.72;49.16
23417;BME280;11881;42.432;25.632;2022-10-16T14:10:27;100102.53;;;18.71;49.67
23417;BME280;11881;42.432;25.632;2022-10-16T14:13:00;100099.47;;;18.66;50.01
23417;BME280;11881;42.432;25.632;2022-10-16T14:15:27;100111.97;;;18.58;50.42
23417;BME280;11881;42.432;25.632;2022-10-16T14:17:54;100115.84;;;18.64;50.69
23417;BME280;11881;42.432;25.632;2022-10-16T14:20:24;100118.53;;;18.64;50.66
23417;BME280;11881;42.432;25.632;2022-10-16T14:22:59;100114.66;;;18.58;51.52
23417;BME280;11881;42.432;25.632;2022-10-16T14:25:28;100119.53;;;18.55;51.37
23417;BME280;11881;42.432;25.632;2022-10-16T14:30:27;100118.22;;;18.34;53.00
23417;BME280;11881;42.432;25.632;2022-10-16T14:33:02;100126.13;;;18.36;53.24
23417;BME280;11881;42.432;25.632;2022-10-16T14:35:36;100128.31;;;18.24;52.70
23417;BME280;11881;42.432;25.632;2022-10-16T14:38:05;100133.38;;;18.27;52.41
23417;BME280;11881;42.432;25.632;2022-10-16T14:40:36;100132.53;;;18.19;52.28
23417;BME280;11881;42.432;25.632;2022-10-16T14:43:03;100144.00;;;18.21;52.69
23417;BME280;11881;42.432;25.632;2022-10-16T14:45:32;100129.34;;;18.15;52.33
23417;BME280;11881;42.432;25.632;2022-10-16T14:48:01;100132.19;;;18.14;51.96